Terminal Aerodrome Forecast
Issued by NWS Shreveport, LA

Home | Current Version | Previous Version | Text Only | Print | Product List | Glossary On
Versions: 1 2 3 4 5 6 7 8 9 10 11 12 13 14 15 16 17 18 19 20 21 22 23
000
FTUS44 KSHV 231700
TAFGGG
TAF
KGGG 231740Z 2318/2418 15009KT P6SM FEW045
     FM240000 16007KT P6SM SKC
     FM241000 17010KT P6SM BKN015
     FM241500 18014G21KT P6SM OVC025
     FM241700 21016G24KT P6SM OVC035=

USA.gov is the U.S. government's official web portal to all federal, state and local government web resources and services.